Time;durP1;ratioP1;P1;durP2;ratioP2;P2;SDS_P1;SDS_P2;PMS_P1;PMS_P2;Temp;Humidity;BMP_temperature;BMP_pressure;BME280_temperature;BME280_humidity;BME280_pressure;Samples;Min_cycle;Max_cycle;Signal;HPM_P1;HPM_P2
2021/06/30 00:00:31;;;;;;;18.27;6.93;;;;;;;;;;5071495;28;20557;-72
2021/06/30 00:02:57;;;;;;;18.55;7.38;;;;;;;;;;5065968;28;20035;-72
2021/06/30 00:05:23;;;;;;;16.30;6.38;;;;;;;;;;5071370;28;20112;-73
2021/06/30 00:07:49;;;;;;;15.65;7.30;;;;;;;;;;5066540;28;20037;-72
2021/06/30 00:10:15;;;;;;;18.95;7.00;;;;;;;;;;5072847;28;20055;-65
2021/06/30 00:12:41;;;;;;;19.80;6.32;;;;;;;;;;5070458;28;20040;-73
2021/06/30 00:15:09;;;;;;;19.13;6.63;;;;;;;;;;5066579;28;20020;-69
2021/06/30 00:17:35;;;;;;;20.70;6.65;;;;;;;;;;5069601;28;20048;-63
2021/06/30 00:20:01;;;;;;;18.23;6.63;;;;;;;;;;5072856;28;20024;-67
2021/06/30 00:22:28;;;;;;;14.52;5.75;;;;;;;;;;5074771;28;20036;-64
2021/06/30 00:24:54;;;;;;;21.63;6.25;;;;;;;;;;5074226;28;20041;-68
2021/06/30 00:27:20;;;;;;;21.17;6.57;;;;;;;;;;5072868;28;20032;-72
2021/06/30 00:29:46;;;;;;;17.38;5.65;;;;;;;;;;5066509;28;20041;-67
2021/06/30 00:32:12;;;;;;;19.02;6.10;;;;;;;;;;5068979;28;20052;-73
2021/06/30 00:34:38;;;;;;;17.52;6.65;;;;;;;;;;5068042;28;20029;-69
2021/06/30 00:37:04;;;;;;;14.93;5.88;;;;;;;;;;5073416;28;20039;-65
2021/06/30 00:39:30;;;;;;;14.73;6.18;;;;;;;;;;5068015;28;20029;-71
2021/06/30 00:41:57;;;;;;;18.38;6.25;;;;;;;;;;5075037;28;20021;-67
2021/06/30 00:44:24;;;;;;;20.73;6.68;;;;;;;;;;5073663;28;20032;-63
2021/06/30 00:46:50;;;;;;;18.30;5.80;;;;;;;;;;5072801;28;20093;-63
2021/06/30 00:49:16;;;;;;;20.90;5.60;;;;;;;;;;5068139;28;20104;-72
2021/06/30 00:51:42;;;;;;;18.75;6.95;;;;;;;;;;5074139;28;20124;-69
2021/06/30 00:54:09;;;;;;;20.05;6.10;;;;;;;;;;5069944;28;20082;-70
2021/06/30 00:56:35;;;;;;;16.77;6.00;;;;;;;;;;5056818;28;20020;-70
2021/06/30 00:59:01;;;;;;;22.50;6.63;;;;;;;;;;5071652;28;20464;-68
2021/06/30 01:01:28;;;;;;;17.17;6.57;;;;;;;;;;5073804;28;20032;-70
2021/06/30 01:03:54;;;;;;;18.33;6.03;;;;;;;;;;5073091;28;20044;-62
2021/06/30 01:06:21;;;;;;;18.35;5.75;;;;;;;;;;5074317;28;20031;-64
2021/06/30 01:08:47;;;;;;;16.38;6.57;;;;;;;;;;5074065;28;20447;-72
2021/06/30 01:11:14;;;;;;;16.55;5.53;;;;;;;;;;5069561;28;20063;-69
2021/06/30 01:13:41;;;;;;;20.60;5.90;;;;;;;;;;5073664;28;20032;-63
2021/06/30 01:16:08;;;;;;;20.13;6.72;;;;;;;;;;5068126;28;20014;-72
2021/06/30 01:18:35;;;;;;;16.83;6.32;;;;;;;;;;5061342;28;20094;-71
2021/06/30 01:21:02;;;;;;;16.05;6.30;;;;;;;;;;5070208;28;20146;-72
2021/06/30 01:23:28;;;;;;;19.90;6.15;;;;;;;;;;5063235;28;20048;-71
2021/06/30 01:25:54;;;;;;;14.73;5.78;;;;;;;;;;5072542;28;20474;-62
2021/06/30 01:28:21;;;;;;;15.35;5.57;;;;;;;;;;5073405;28;20060;-73
2021/06/30 01:30:48;;;;;;;14.10;5.57;;;;;;;;;;5064942;28;20033;-72
2021/06/30 01:33:14;;;;;;;17.42;5.85;;;;;;;;;;5073051;28;20107;-62
2021/06/30 01:35:41;;;;;;;18.13;6.15;;;;;;;;;;5063474;28;20100;-71
2021/06/30 01:38:07;;;;;;;16.73;5.43;;;;;;;;;;5073179;28;20020;-72
2021/06/30 01:40:33;;;;;;;14.50;5.40;;;;;;;;;;5067587;28;20033;-63
2021/06/30 01:42:59;;;;;;;19.63;5.55;;;;;;;;;;5073506;28;20085;-69
2021/06/30 01:45:26;;;;;;;16.92;5.22;;;;;;;;;;5069766;28;20032;-68
2021/06/30 01:47:52;;;;;;;22.42;5.80;;;;;;;;;;5071238;28;20028;-72
2021/06/30 01:50:19;;;;;;;17.98;6.03;;;;;;;;;;5071535;28;20092;-73
2021/06/30 01:52:45;;;;;;;21.90;6.15;;;;;;;;;;5065082;28;20049;-72
2021/06/30 01:55:12;;;;;;;20.92;5.80;;;;;;;;;;5072855;28;20448;-71
2021/06/30 01:57:41;;;;;;;18.90;5.55;;;;;;;;;;5067845;28;20028;-72
2021/06/30 02:00:08;;;;;;;13.50;5.20;;;;;;;;;;5071478;28;20033;-70
2021/06/30 02:02:34;;;;;;;20.17;5.97;;;;;;;;;;5056104;28;20402;-72
2021/06/30 02:05:08;;;;;;;15.00;5.03;;;;;;;;;;5065949;28;20029;-73
2021/06/30 02:07:34;;;;;;;20.27;5.78;;;;;;;;;;5064336;28;20436;-69
2021/06/30 02:10:00;;;;;;;20.48;5.97;;;;;;;;;;5072337;28;20474;-73
2021/06/30 02:12:26;;;;;;;15.50;5.25;;;;;;;;;;5069431;28;20497;-72
2021/06/30 02:14:52;;;;;;;21.05;5.57;;;;;;;;;;5065220;28;20531;-70
2021/06/30 02:17:19;;;;;;;18.23;6.18;;;;;;;;;;5068274;28;20111;-62
2021/06/30 02:19:49;;;;;;;17.65;5.50;;;;;;;;;;5072854;28;20842;-73
2021/06/30 02:22:16;;;;;;;16.63;5.60;;;;;;;;;;5067853;28;20028;-63
2021/06/30 02:24:42;;;;;;;19.33;5.75;;;;;;;;;;5073149;28;20031;-73
2021/06/30 02:27:08;;;;;;;20.70;6.60;;;;;;;;;;5072614;28;20032;-70
2021/06/30 02:29:34;;;;;;;21.05;5.40;;;;;;;;;;5069823;28;20481;-70
2021/06/30 02:32:01;;;;;;;12.90;5.78;;;;;;;;;;5063374;28;20027;-73
2021/06/30 02:34:27;;;;;;;22.17;6.38;;;;;;;;;;5065581;28;20047;-71
2021/06/30 02:36:53;;;;;;;16.70;6.07;;;;;;;;;;5499880;22;20023;-71
2021/06/30 02:39:19;;;;;;;16.35;6.10;;;;;;;;;;5028969;28;20129;-72
2021/06/30 02:41:45;;;;;;;14.77;5.82;;;;;;;;;;5028079;28;20029;-71
2021/06/30 02:44:11;;;;;;;20.95;5.70;;;;;;;;;;5029274;28;20041;-71
2021/06/30 02:46:37;;;;;;;21.92;5.60;;;;;;;;;;5032248;28;20485;-72
2021/06/30 02:49:04;;;;;;;14.82;5.78;;;;;;;;;;5030793;28;20380;-71
2021/06/30 02:51:30;;;;;;;22.33;5.80;;;;;;;;;;5032095;28;20100;-68
2021/06/30 02:53:56;;;;;;;14.55;5.07;;;;;;;;;;5022229;28;20486;-69
2021/06/30 02:56:22;;;;;;;15.35;5.88;;;;;;;;;;5023078;28;20022;-71
2021/06/30 02:58:49;;;;;;;13.02;5.32;;;;;;;;;;5024826;28;20208;-69
2021/06/30 03:01:15;;;;;;;15.85;5.18;;;;;;;;;;5021784;28;20042;-72
2021/06/30 03:03:41;;;;;;;16.40;6.22;;;;;;;;;;5016617;28;20046;-71
2021/06/30 03:06:07;;;;;;;13.75;5.55;;;;;;;;;;5019069;28;20475;-61
2021/06/30 03:08:33;;;;;;;18.13;5.72;;;;;;;;;;5032216;28;20501;-64
2021/06/30 03:10:59;;;;;;;14.80;5.53;;;;;;;;;;5030438;28;20541;-64
2021/06/30 03:13:25;;;;;;;16.50;5.75;;;;;;;;;;5031619;28;20418;-62
2021/06/30 03:15:51;;;;;;;15.45;5.57;;;;;;;;;;5024977;28;20077;-65
2021/06/30 03:18:18;;;;;;;18.95;5.65;;;;;;;;;;5029942;28;20174;-67
2021/06/30 03:20:45;;;;;;;19.65;5.60;;;;;;;;;;5025394;28;20456;-70
2021/06/30 03:23:11;;;;;;;14.55;4.78;;;;;;;;;;5030483;28;20029;-69
2021/06/30 03:25:37;;;;;;;20.95;5.50;;;;;;;;;;5031509;28;20033;-72
2021/06/30 03:28:03;;;;;;;21.65;5.60;;;;;;;;;;5025615;28;20490;-73
2021/06/30 03:30:31;;;;;;;25.83;5.65;;;;;;;;;;5029498;28;20034;-68
2021/06/30 03:32:57;;;;;;;25.95;6.22;;;;;;;;;;5012721;28;20022;-73
2021/06/30 03:35:24;;;;;;;15.90;5.25;;;;;;;;;;5032087;28;20024;-67
2021/06/30 03:37:52;;;;;;;20.92;5.57;;;;;;;;;;5028183;28;20431;-70
2021/06/30 03:40:18;;;;;;;12.25;5.03;;;;;;;;;;5028559;28;20063;-73
2021/06/30 03:42:44;;;;;;;19.42;4.78;;;;;;;;;;5030611;28;20040;-61
2021/06/30 03:45:10;;;;;;;15.02;5.43;;;;;;;;;;5030391;28;20458;-61
2021/06/30 03:47:36;;;;;;;20.55;5.07;;;;;;;;;;5031553;28;20022;-62
2021/06/30 03:50:05;;;;;;;15.23;5.00;;;;;;;;;;5031192;28;20072;-61
2021/06/30 03:52:31;;;;;;;20.13;5.13;;;;;;;;;;5029880;28;20026;-70
2021/06/30 03:54:59;;;;;;;15.40;5.00;;;;;;;;;;5012223;28;20484;-61
2021/06/30 03:57:25;;;;;;;17.25;5.03;;;;;;;;;;5005269;28;20025;-64
2021/06/30 03:59:52;;;;;;;16.48;5.05;;;;;;;;;;5006784;28;20026;-68
2021/06/30 04:02:18;;;;;;;18.35;5.38;;;;;;;;;;5008318;28;20022;-71
2021/06/30 04:04:44;;;;;;;18.20;5.07;;;;;;;;;;5011601;28;20040;-64
2021/06/30 04:07:11;;;;;;;16.40;5.50;;;;;;;;;;5005260;28;20026;-62
2021/06/30 04:09:37;;;;;;;21.77;5.15;;;;;;;;;;5004814;28;20519;-74
2021/06/30 04:12:04;;;;;;;17.33;4.60;;;;;;;;;;5003958;28;20013;-69
2021/06/30 04:14:30;;;;;;;18.30;5.40;;;;;;;;;;5008451;28;20479;-64
2021/06/30 04:16:56;;;;;;;19.05;4.88;;;;;;;;;;5011437;28;20034;-72
2021/06/30 04:19:22;;;;;;;19.85;5.18;;;;;;;;;;5011440;28;20092;-70
2021/06/30 04:21:49;;;;;;;16.52;4.93;;;;;;;;;;5010513;28;20057;-72
2021/06/30 04:24:15;;;;;;;15.35;4.60;;;;;;;;;;5003549;28;20472;-72
2021/06/30 04:26:42;;;;;;;21.38;6.22;;;;;;;;;;5011693;28;20029;-68
2021/06/30 04:29:09;;;;;;;16.58;4.88;;;;;;;;;;5006759;28;20117;-72
2021/06/30 04:31:35;;;;;;;15.20;4.72;;;;;;;;;;5008013;28;20033;-61
2021/06/30 04:34:02;;;;;;;23.70;5.45;;;;;;;;;;5002066;28;20055;-76
2021/06/30 04:36:28;;;;;;;25.33;5.45;;;;;;;;;;4991787;28;20050;-66
2021/06/30 04:38:54;;;;;;;19.80;6.18;;;;;;;;;;5009974;28;20046;-65
2021/06/30 04:41:20;;;;;;;23.75;6.18;;;;;;;;;;5010915;28;20108;-64
2021/06/30 04:43:46;;;;;;;15.90;5.18;;;;;;;;;;5010105;28;20037;-65
2021/06/30 04:46:12;;;;;;;20.55;5.30;;;;;;;;;;4993595;28;20092;-73
2021/06/30 04:48:39;;;;;;;18.63;5.70;;;;;;;;;;5011150;28;20434;-64
2021/06/30 04:51:05;;;;;;;17.80;4.70;;;;;;;;;;5013165;28;20018;-64
2021/06/30 04:53:32;;;;;;;17.92;5.32;;;;;;;;;;5012738;28;20034;-64
2021/06/30 04:55:59;;;;;;;20.98;4.90;;;;;;;;;;5014866;28;20045;-63
2021/06/30 04:58:25;;;;;;;24.67;5.63;;;;;;;;;;5004958;28;20034;-69
2021/06/30 05:00:54;;;;;;;22.13;5.15;;;;;;;;;;5007831;28;20487;-67
2021/06/30 05:03:21;;;;;;;26.27;5.43;;;;;;;;;;5013116;28;20052;-65
2021/06/30 05:05:49;;;;;;;22.70;5.43;;;;;;;;;;5012218;28;20029;-66
2021/06/30 05:08:15;;;;;;;27.90;5.55;;;;;;;;;;4996445;28;20069;-62
2021/06/30 05:10:41;;;;;;;23.20;5.18;;;;;;;;;;5010234;28;20076;-68
2021/06/30 05:13:07;;;;;;;22.92;5.30;;;;;;;;;;5010750;28;20112;-68
2021/06/30 05:15:33;;;;;;;21.60;5.43;;;;;;;;;;5011133;28;20026;-63
2021/06/30 05:17:59;;;;;;;18.92;4.75;;;;;;;;;;5011669;28;20033;-64
2021/06/30 05:20:25;;;;;;;19.98;5.53;;;;;;;;;;5006605;28;21253;-67
2021/06/30 05:22:54;;;;;;;13.95;4.47;;;;;;;;;;5011240;28;20069;-66
2021/06/30 05:25:20;;;;;;;16.52;4.88;;;;;;;;;;5011666;28;20384;-65
2021/06/30 05:27:46;;;;;;;30.77;6.68;;;;;;;;;;5013393;28;20038;-67
2021/06/30 05:30:13;;;;;;;25.42;6.63;;;;;;;;;;5013273;28;20439;-67
2021/06/30 05:32:39;;;;;;;38.92;7.25;;;;;;;;;;5012555;28;20032;-69
2021/06/30 05:35:05;;;;;;;30.85;7.00;;;;;;;;;;5013377;28;20036;-67
2021/06/30 05:37:31;;;;;;;28.33;6.70;;;;;;;;;;5012079;28;20068;-68
2021/06/30 05:39:58;;;;;;;45.10;8.68;;;;;;;;;;5013044;28;20030;-68
2021/06/30 05:42:24;;;;;;;31.80;7.85;;;;;;;;;;5013113;28;20034;-62
2021/06/30 05:44:51;;;;;;;27.90;8.23;;;;;;;;;;5012664;28;20040;-68
2021/06/30 05:47:17;;;;;;;22.90;6.20;;;;;;;;;;5008495;28;20372;-67
2021/06/30 05:49:43;;;;;;;22.20;6.18;;;;;;;;;;5007050;28;20030;-62
2021/06/30 05:52:09;;;;;;;17.17;6.22;;;;;;;;;;5008105;28;20511;-65
2021/06/30 05:54:35;;;;;;;17.02;5.95;;;;;;;;;;5012696;28;20435;-59
2021/06/30 05:57:01;;;;;;;19.85;6.32;;;;;;;;;;5011130;28;20108;-67
2021/06/30 05:59:27;;;;;;;26.67;7.47;;;;;;;;;;5008607;28;20026;-64
2021/06/30 06:01:53;;;;;;;22.65;5.97;;;;;;;;;;5012890;28;20372;-64
2021/06/30 06:04:19;;;;;;;23.95;7.28;;;;;;;;;;5012427;28;20041;-61
2021/06/30 06:06:45;;;;;;;24.80;5.45;;;;;;;;;;5011842;28;20105;-74
2021/06/30 06:09:12;;;;;;;33.10;6.53;;;;;;;;;;5011229;28;20034;-74
2021/06/30 06:11:38;;;;;;;28.15;7.50;;;;;;;;;;4994321;28;20111;-83
2021/06/30 06:14:04;;;;;;;27.00;8.25;;;;;;;;;;5012092;28;20025;-82
2021/06/30 06:16:31;;;;;;;30.65;12.43;;;;;;;;;;4990528;28;20030;-74
2021/06/30 06:18:57;;;;;;;27.50;11.43;;;;;;;;;;5011928;28;20018;-65
2021/06/30 06:21:23;;;;;;;28.85;13.45;;;;;;;;;;5009363;28;20112;-65
2021/06/30 06:23:49;;;;;;;37.33;16.50;;;;;;;;;;5012742;28;20038;-63
2021/06/30 06:26:16;;;;;;;35.72;19.73;;;;;;;;;;5007502;28;20096;-81
2021/06/30 06:28:43;;;;;;;26.73;12.70;;;;;;;;;;5005727;28;20033;-83
2021/06/30 06:31:14;;;;;;;31.92;10.68;;;;;;;;;;5011234;28;21797;-80
2021/06/30 06:33:40;;;;;;;23.38;8.43;;;;;;;;;;4994457;28;20061;-83
2021/06/30 06:36:06;;;;;;;21.42;6.20;;;;;;;;;;4994435;28;20022;-79
2021/06/30 06:38:32;;;;;;;22.17;5.72;;;;;;;;;;4991457;28;20250;-79
2021/06/30 06:40:58;;;;;;;22.50;5.57;;;;;;;;;;5012239;28;20464;-72
2021/06/30 06:43:24;;;;;;;20.58;5.57;;;;;;;;;;5010315;28;20061;-72
2021/06/30 06:45:51;;;;;;;25.30;11.48;;;;;;;;;;5010089;28;20030;-74
2021/06/30 06:48:17;;;;;;;25.27;12.50;;;;;;;;;;5011004;28;20045;-71
2021/06/30 06:50:43;;;;;;;18.65;8.27;;;;;;;;;;5009125;28;20030;-76
2021/06/30 06:53:09;;;;;;;19.05;5.45;;;;;;;;;;5006109;28;20029;-76
2021/06/30 06:55:35;;;;;;;23.23;7.15;;;;;;;;;;5011279;28;20029;-77
2021/06/30 06:58:01;;;;;;;16.92;7.20;;;;;;;;;;5011591;28;20037;-80
2021/06/30 07:00:27;;;;;;;22.88;10.80;;;;;;;;;;5006770;28;20116;-79
2021/06/30 07:02:53;;;;;;;23.45;6.80;;;;;;;;;;5009693;28;20044;-78
2021/06/30 07:05:19;;;;;;;38.22;7.75;;;;;;;;;;4993836;28;20499;-63
2021/06/30 07:07:45;;;;;;;21.85;5.75;;;;;;;;;;4991294;28;20642;-61
2021/06/30 07:10:12;;;;;;;14.20;6.30;;;;;;;;;;5012139;28;20030;-63
2021/06/30 07:12:39;;;;;;;18.35;6.20;;;;;;;;;;5007727;28;20033;-63
2021/06/30 07:15:05;;;;;;;19.10;6.97;;;;;;;;;;5008774;28;20096;-62
2021/06/30 07:17:33;;;;;;;28.27;8.32;;;;;;;;;;5010337;28;20388;-62
2021/06/30 07:19:59;;;;;;;22.17;6.10;;;;;;;;;;5011213;28;20014;-61
2021/06/30 07:22:25;;;;;;;19.15;7.20;;;;;;;;;;5008718;28;20034;-72
2021/06/30 07:24:52;;;;;;;19.40;5.75;;;;;;;;;;4991649;28;20030;-71
2021/06/30 07:27:18;;;;;;;25.60;9.75;;;;;;;;;;5009379;28;20541;-81
2021/06/30 07:29:46;;;;;;;23.35;8.13;;;;;;;;;;5010500;28;20033;-74
2021/06/30 07:32:13;;;;;;;25.23;7.70;;;;;;;;;;5011127;28;20029;-74
2021/06/30 07:34:39;;;;;;;17.35;7.28;;;;;;;;;;4994837;28;20741;-77
2021/06/30 07:37:05;;;;;;;29.90;7.25;;;;;;;;;;5010000;28;20022;-80
2021/06/30 07:39:31;;;;;;;17.98;5.90;;;;;;;;;;4993207;28;20038;-81
2021/06/30 07:41:57;;;;;;;24.45;6.18;;;;;;;;;;5010751;28;20049;-80
2021/06/30 07:44:23;;;;;;;21.70;5.65;;;;;;;;;;5010309;28;20494;-76
2021/06/30 07:46:49;;;;;;;23.67;5.88;;;;;;;;;;4992840;28;20131;-72
2021/06/30 07:49:16;;;;;;;25.67;5.50;;;;;;;;;;5010848;28;20839;-69
2021/06/30 07:51:42;;;;;;;24.77;5.72;;;;;;;;;;5010213;28;20391;-65
2021/06/30 07:54:08;;;;;;;22.58;6.57;;;;;;;;;;5010440;28;20087;-64
2021/06/30 07:56:34;;;;;;;25.45;6.18;;;;;;;;;;5010438;28;20026;-79
2021/06/30 07:59:04;;;;;;;19.65;5.13;;;;;;;;;;5007804;28;20512;-63
2021/06/30 08:01:30;;;;;;;25.42;6.18;;;;;;;;;;5009249;28;20061;-79
2021/06/30 08:03:56;;;;;;;29.15;7.10;;;;;;;;;;5010377;28;20102;-81
2021/06/30 08:06:22;;;;;;;31.42;5.75;;;;;;;;;;5008546;28;20067;-73
2021/06/30 08:08:49;;;;;;;25.35;5.22;;;;;;;;;;5006255;28;20026;-78
2021/06/30 08:11:17;;;;;;;21.70;5.70;;;;;;;;;;5009789;28;20025;-73
2021/06/30 08:13:43;;;;;;;24.30;5.82;;;;;;;;;;5009268;28;20034;-70
2021/06/30 08:16:09;;;;;;;16.90;5.70;;;;;;;;;;5008386;28;20108;-75
2021/06/30 08:18:35;;;;;;;22.27;6.00;;;;;;;;;;5005841;28;21654;-75
2021/06/30 08:21:02;;;;;;;22.73;6.00;;;;;;;;;;5010029;28;20037;-70
2021/06/30 08:23:28;;;;;;;26.20;5.57;;;;;;;;;;5014934;28;20041;-74
2021/06/30 08:25:54;;;;;;;15.70;5.22;;;;;;;;;;5013129;28;20037;-79
2021/06/30 08:28:24;;;;;;;19.58;6.03;;;;;;;;;;5012620;28;20025;-77
2021/06/30 08:30:52;;;;;;;19.42;5.65;;;;;;;;;;5009528;28;20022;-73
2021/06/30 08:33:18;;;;;;;21.90;5.55;;;;;;;;;;5011097;28;20038;-74
2021/06/30 08:35:45;;;;;;;22.77;5.88;;;;;;;;;;5013584;28;20028;-73
2021/06/30 08:38:11;;;;;;;29.08;6.32;;;;;;;;;;4994864;28;20042;-76
2021/06/30 08:40:38;;;;;;;32.95;6.32;;;;;;;;;;5009389;28;20026;-65
2021/06/30 08:43:07;;;;;;;22.85;5.10;;;;;;;;;;5011466;28;20034;-73
2021/06/30 08:45:36;;;;;;;22.77;5.28;;;;;;;;;;5013514;28;20487;-70
2021/06/30 08:48:02;;;;;;;21.77;5.47;;;;;;;;;;5011232;28;20484;-72
2021/06/30 08:50:29;;;;;;;16.40;5.45;;;;;;;;;;5010687;28;20076;-72
2021/06/30 08:52:55;;;;;;;26.27;5.32;;;;;;;;;;5007696;28;20030;-73
2021/06/30 08:55:22;;;;;;;24.83;5.30;;;;;;;;;;5011671;28;20030;-73
2021/06/30 08:57:49;;;;;;;17.75;4.80;;;;;;;;;;5012192;28;20053;-74
2021/06/30 09:00:15;;;;;;;21.05;4.68;;;;;;;;;;5010275;28;20487;-75
2021/06/30 09:02:46;;;;;;;22.25;5.47;;;;;;;;;;5014156;28;20125;-73
2021/06/30 09:07:50;;;;;;;23.85;5.07;;;;;;;;;;5007773;28;20064;-78
2021/06/30 09:10:33;;;;;;;23.67;5.20;;;;;;;;;;5015350;28;20022;-76
2021/06/30 09:13:00;;;;;;;20.65;5.57;;;;;;;;;;5010032;28;20030;-81
2021/06/30 09:15:31;;;;;;;17.23;4.85;;;;;;;;;;4993884;28;20581;-75
2021/06/30 09:18:16;;;;;;;22.35;5.35;;;;;;;;;;5006379;28;20055;-82
2021/06/30 09:20:42;;;;;;;17.95;5.28;;;;;;;;;;5009821;28;20557;-75
2021/06/30 09:23:08;;;;;;;15.68;4.50;;;;;;;;;;5011374;28;20037;-78
2021/06/30 09:25:36;;;;;;;25.38;4.80;;;;;;;;;;5009642;28;20053;-75
2021/06/30 09:28:13;;;;;;;18.13;4.80;;;;;;;;;;5012129;28;20883;-78
2021/06/30 09:30:54;;;;;;;19.33;4.50;;;;;;;;;;5008731;28;20029;-63
2021/06/30 09:33:21;;;;;;;22.98;5.00;;;;;;;;;;5013579;28;20065;-65
2021/06/30 09:35:48;;;;;;;17.13;4.47;;;;;;;;;;5013850;28;20026;-63
2021/06/30 09:38:29;;;;;;;14.05;4.47;;;;;;;;;;5012712;28;20399;-64
2021/06/30 09:40:55;;;;;;;17.85;5.13;;;;;;;;;;5013897;28;20099;-64
2021/06/30 09:43:26;;;;;;;20.00;4.60;;;;;;;;;;5009563;28;20018;-64
2021/06/30 09:45:52;;;;;;;15.77;4.68;;;;;;;;;;5013860;28;20113;-65
2021/06/30 09:48:28;;;;;;;21.65;4.85;;;;;;;;;;5011620;28;20034;-65
2021/06/30 09:50:54;;;;;;;17.13;4.85;;;;;;;;;;5011938;28;20076;-63
2021/06/30 09:53:39;;;;;;;12.52;4.30;;;;;;;;;;5011093;28;20373;-62
2021/06/30 09:56:32;;;;;;;21.65;5.25;;;;;;;;;;5012471;28;20026;-78
2021/06/30 09:59:29;;;;;;;18.52;4.70;;;;;;;;;;5010405;28;20038;-76
2021/06/30 10:02:02;;;;;;;16.73;4.93;;;;;;;;;;4989365;28;20087;-77
2021/06/30 10:04:33;;;;;;;17.35;4.78;;;;;;;;;;4988194;28;20023;-72
2021/06/30 10:07:00;;;;;;;15.68;5.00;;;;;;;;;;4987281;28;20046;-72
2021/06/30 10:09:27;;;;;;;18.92;5.28;;;;;;;;;;4988439;28;20401;-71
2021/06/30 10:12:03;;;;;;;14.68;4.57;;;;;;;;;;4988216;28;20077;-71
2021/06/30 10:14:29;;;;;;;15.68;4.72;;;;;;;;;;4989893;28;20038;-73
2021/06/30 10:16:56;;;;;;;15.20;4.75;;;;;;;;;;4987036;28;20057;-72
2021/06/30 10:19:22;;;;;;;12.90;4.70;;;;;;;;;;4991287;28;20030;-72
2021/06/30 10:21:48;;;;;;;15.38;4.30;;;;;;;;;;4987454;28;20038;-73
2021/06/30 10:24:15;;;;;;;19.73;4.63;;;;;;;;;;4983980;28;20038;-77
2021/06/30 10:26:41;;;;;;;19.35;4.80;;;;;;;;;;4984703;28;20034;-72
2021/06/30 10:29:07;;;;;;;20.48;5.45;;;;;;;;;;4989091;28;20030;-73
2021/06/30 10:31:37;;;;;;;16.67;4.90;;;;;;;;;;4981910;28;20073;-66
2021/06/30 10:34:07;;;;;;;17.70;4.65;;;;;;;;;;4988275;28;20129;-64
2021/06/30 10:36:45;;;;;;;16.83;4.80;;;;;;;;;;4987524;28;20125;-76
2021/06/30 10:39:11;;;;;;;17.95;5.28;;;;;;;;;;4987021;28;20050;-80
2021/06/30 10:41:37;;;;;;;21.23;4.95;;;;;;;;;;5010612;28;20022;-78
2021/06/30 10:44:18;;;;;;;14.93;4.78;;;;;;;;;;5010214;28;20034;-79
2021/06/30 10:46:45;;;;;;;17.33;5.03;;;;;;;;;;4993443;28;20036;-78
2021/06/30 10:49:14;;;;;;;15.65;4.53;;;;;;;;;;5007491;28;20030;-74
2021/06/30 10:51:40;;;;;;;26.80;5.07;;;;;;;;;;5007907;28;20029;-73
2021/06/30 10:54:33;;;;;;;15.18;4.57;;;;;;;;;;5006633;28;20040;-76
2021/06/30 10:57:17;;;;;;;14.77;5.30;;;;;;;;;;4975631;28;20034;-73
2021/06/30 11:00:02;;;;;;;14.52;4.28;;;;;;;;;;4970893;28;20638;-73
2021/06/30 11:02:32;;;;;;;13.60;4.10;;;;;;;;;;4957185;28;20428;-78
2021/06/30 11:05:18;;;;;;;16.50;4.65;;;;;;;;;;4971088;28;20109;-75
2021/06/30 11:07:45;;;;;;;14.57;4.75;;;;;;;;;;4965980;28;20039;-75
2021/06/30 11:10:17;;;;;;;16.20;4.28;;;;;;;;;;4969606;28;20532;-76
2021/06/30 11:12:53;;;;;;;16.83;4.15;;;;;;;;;;4969766;28;20034;-76
2021/06/30 11:15:37;;;;;;;13.48;4.05;;;;;;;;;;4964228;28;20035;-81
2021/06/30 11:18:04;;;;;;;12.05;4.00;;;;;;;;;;4971025;28;20081;-83
2021/06/30 11:20:43;;;;;;;19.10;4.50;;;;;;;;;;4974645;28;20043;-76
2021/06/30 11:23:18;;;;;;;16.13;4.55;;;;;;;;;;4970838;28;20034;-75
2021/06/30 11:25:45;;;;;;;12.00;4.03;;;;;;;;;;4974527;28;20089;-77
2021/06/30 11:28:30;;;;;;;29.45;5.63;;;;;;;;;;4972181;28;20038;-78
2021/06/30 11:30:56;;;;;;;16.17;4.47;;;;;;;;;;4973884;28;20106;-78
2021/06/30 11:33:23;;;;;;;25.02;6.30;;;;;;;;;;4967578;28;20261;-75
2021/06/30 11:35:49;;;;;;;13.60;4.30;;;;;;;;;;5008009;28;20048;-77
2021/06/30 11:38:20;;;;;;;12.57;4.45;;;;;;;;;;5010233;28;20038;-70
2021/06/30 11:40:51;;;;;;;17.75;5.28;;;;;;;;;;5009671;28;20041;-67
2021/06/30 11:43:21;;;;;;;19.85;4.68;;;;;;;;;;5011357;28;20391;-69
2021/06/30 11:45:47;;;;;;;21.25;4.60;;;;;;;;;;5010028;28;20030;-79
2021/06/30 11:48:13;;;;;;;15.13;4.82;;;;;;;;;;5009172;28;20037;-84
2021/06/30 11:50:46;;;;;;;16.75;5.38;;;;;;;;;;4993494;28;20026;-78
2021/06/30 11:53:12;;;;;;;14.38;4.72;;;;;;;;;;5011082;28;20647;-79
2021/06/30 11:55:39;;;;;;;21.27;4.57;;;;;;;;;;5008200;28;20049;-79
2021/06/30 11:58:06;;;;;;;22.75;4.93;;;;;;;;;;5002645;28;20099;-73
2021/06/30 12:00:34;;;;;;;15.43;4.55;;;;;;;;;;5010512;28;20026;-73
2021/06/30 12:03:04;;;;;;;15.90;4.18;;;;;;;;;;5009761;28;20054;-73
2021/06/30 12:05:31;;;;;;;20.25;5.10;;;;;;;;;;5011184;28;20018;-72
2021/06/30 12:07:57;;;;;;;19.00;4.45;;;;;;;;;;5010078;28;20030;-71
2021/06/30 12:10:25;;;;;;;16.83;4.78;;;;;;;;;;5008723;28;20034;-69
2021/06/30 12:12:51;;;;;;;18.83;4.55;;;;;;;;;;5009206;28;20037;-74
2021/06/30 12:15:18;;;;;;;15.63;4.50;;;;;;;;;;5008619;28;20430;-79
2021/06/30 12:17:52;;;;;;;15.95;4.15;;;;;;;;;;5009959;28;20026;-78
2021/06/30 12:20:19;;;;;;;20.17;4.60;;;;;;;;;;5006988;28;20105;-75
2021/06/30 12:22:45;;;;;;;20.20;4.82;;;;;;;;;;5008471;28;20022;-78
2021/06/30 12:25:18;;;;;;;20.25;4.30;;;;;;;;;;4992624;28;20036;-76
2021/06/30 12:27:44;;;;;;;14.82;4.57;;;;;;;;;;5006174;28;20034;-77
2021/06/30 12:30:11;;;;;;;12.50;4.18;;;;;;;;;;5010122;28;20064;-75
2021/06/30 12:32:38;;;;;;;16.98;4.85;;;;;;;;;;5007793;28;20025;-81
2021/06/30 12:35:05;;;;;;;12.57;4.07;;;;;;;;;;5019073;28;20038;-75
2021/06/30 12:37:32;;;;;;;15.07;5.20;;;;;;;;;;5007672;28;20045;-75
2021/06/30 12:40:00;;;;;;;16.48;4.72;;;;;;;;;;5009050;28;20038;-75
2021/06/30 12:42:45;;;;;;;15.38;4.60;;;;;;;;;;5008944;28;20513;-70
2021/06/30 12:45:12;;;;;;;14.45;4.65;;;;;;;;;;5008930;28;20494;-76
2021/06/30 12:47:49;;;;;;;24.65;5.18;;;;;;;;;;5009680;28;20396;-76
2021/06/30 12:50:15;;;;;;;17.25;5.25;;;;;;;;;;5000952;28;20026;-77
2021/06/30 12:52:41;;;;;;;23.08;4.82;;;;;;;;;;5005114;28;20116;-75
2021/06/30 12:55:11;;;;;;;16.58;5.05;;;;;;;;;;5009586;28;20026;-74
2021/06/30 12:57:55;;;;;;;19.05;4.72;;;;;;;;;;5007124;28;20018;-76
2021/06/30 13:00:23;;;;;;;19.30;4.78;;;;;;;;;;5007642;28;20522;-74
2021/06/30 13:03:08;;;;;;;19.13;4.60;;;;;;;;;;5007920;28;20032;-78
2021/06/30 13:05:34;;;;;;;16.65;4.95;;;;;;;;;;4992631;28;20452;-86
2021/06/30 13:08:00;;;;;;;23.25;4.90;;;;;;;;;;5014827;28;20026;-79
2021/06/30 13:10:26;;;;;;;19.52;4.85;;;;;;;;;;5014338;28;20450;-77
2021/06/30 13:13:05;;;;;;;19.30;5.15;;;;;;;;;;5015711;28;20030;-74
2021/06/30 13:15:32;;;;;;;18.23;4.57;;;;;;;;;;5011293;28;20038;-69
2021/06/30 13:18:14;;;;;;;22.85;5.35;;;;;;;;;;5012991;28;20488;-81
2021/06/30 13:20:40;;;;;;;20.55;4.88;;;;;;;;;;5014763;28;20438;-75
2021/06/30 13:23:06;;;;;;;17.83;4.38;;;;;;;;;;5012324;28;20030;-73
2021/06/30 13:26:07;;;;;;;19.75;4.82;;;;;;;;;;5013248;28;20024;-75
2021/06/30 13:34:20;;;;;;;17.17;5.38;;;;;;;;;;4932292;29;20557;-63
2021/06/30 13:36:46;;;;;;;18.20;4.93;;;;;;;;;;4931357;29;20583;-64
2021/06/30 13:39:12;;;;;;;19.92;5.07;;;;;;;;;;4932718;29;20044;-61
2021/06/30 13:41:38;;;;;;;17.90;4.82;;;;;;;;;;4924737;29;20119;-59
2021/06/30 13:44:05;;;;;;;15.90;4.55;;;;;;;;;;4933840;29;20156;-59
2021/06/30 13:46:31;;;;;;;21.15;4.70;;;;;;;;;;4930172;29;20030;-62
2021/06/30 13:48:58;;;;;;;21.85;5.10;;;;;;;;;;4930064;29;20032;-64
2021/06/30 13:51:24;;;;;;;18.85;5.00;;;;;;;;;;4933573;29;20560;-65
2021/06/30 13:53:51;;;;;;;19.67;4.93;;;;;;;;;;4932835;29;20047;-62
2021/06/30 13:56:18;;;;;;;19.90;4.75;;;;;;;;;;4933540;29;20036;-62
2021/06/30 13:58:44;;;;;;;21.27;5.07;;;;;;;;;;4932513;29;20586;-63
2021/06/30 14:01:11;;;;;;;20.23;5.70;;;;;;;;;;4938701;28;20028;-66
2021/06/30 14:03:38;;;;;;;16.73;5.03;;;;;;;;;;5012344;28;20030;-61
2021/06/30 14:06:05;;;;;;;22.77;5.68;;;;;;;;;;5012545;28;20510;-71
2021/06/30 14:08:31;;;;;;;19.13;4.70;;;;;;;;;;5007577;28;20029;-61
2021/06/30 14:10:59;;;;;;;16.05;5.05;;;;;;;;;;5010379;28;20783;-64
2021/06/30 14:13:25;;;;;;;19.35;4.95;;;;;;;;;;5010568;28;20525;-61
2021/06/30 14:15:52;;;;;;;19.27;5.30;;;;;;;;;;5011757;28;20064;-61
2021/06/30 14:18:20;;;;;;;14.75;4.75;;;;;;;;;;5010572;28;20034;-60
2021/06/30 14:20:46;;;;;;;18.92;5.05;;;;;;;;;;5012403;28;20054;-72
2021/06/30 14:23:17;;;;;;;18.00;5.13;;;;;;;;;;5008454;28;20072;-72
2021/06/30 14:25:43;;;;;;;16.30;4.88;;;;;;;;;;5011403;28;20025;-63
2021/06/30 14:28:10;;;;;;;20.42;4.85;;;;;;;;;;5010202;28;20057;-68
2021/06/30 14:30:36;;;;;;;23.00;5.40;;;;;;;;;;5013222;28;20445;-67
2021/06/30 14:33:03;;;;;;;18.38;4.53;;;;;;;;;;5010594;28;20534;-64
2021/06/30 14:35:29;;;;;;;24.75;5.68;;;;;;;;;;5011648;28;20053;-75
2021/06/30 14:37:55;;;;;;;19.27;5.22;;;;;;;;;;5010628;28;20046;-71
2021/06/30 14:40:21;;;;;;;18.38;5.10;;;;;;;;;;5009837;28;20029;-72